Time;durP1;ratioP1;P1;durP2;ratioP2;P2;SDS_P1;SDS_P2;PMS_P1;PMS_P2;Temp;Humidity;BMP_temperature;BMP_pressure;BME280_temperature;BME280_humidity;BME280_pressure;Samples;Min_cycle;Max_cycle;Signal;HPM_P1;HPM_P2
2021/05/16 00:02:18;;;;;;;4.47;3.37;;;10.40;99.90;;;;;;4993528;28;20199;-85
2021/05/16 00:04:44;;;;;;;4.07;3.10;;;10.40;99.90;;;;;;5008368;28;20253;-84
2021/05/16 00:07:10;;;;;;;6.67;2.93;;;10.40;99.90;;;;;;5007605;28;20222;-85
2021/05/16 00:09:36;;;;;;;3.73;2.87;;;10.40;99.90;;;;;;5041093;28;20225;-85
2021/05/16 00:12:03;;;;;;;4.40;3.30;;;10.40;99.90;;;;;;5023990;28;20256;-85
2021/05/16 00:14:30;;;;;;;4.17;3.37;;;10.40;99.90;;;;;;5024870;28;20190;-84
2021/05/16 00:16:56;;;;;;;5.40;3.97;;;10.40;99.90;;;;;;5017307;28;20229;-86
2021/05/16 00:19:21;;;;;;;3.67;3.00;;;10.30;99.90;;;;;;5042158;28;20341;-85
2021/05/16 00:21:47;;;;;;;4.20;2.97;;;10.30;99.90;;;;;;5007791;28;20965;-87
2021/05/16 00:24:14;;;;;;;8.03;3.67;;;10.30;99.90;;;;;;5024719;28;20229;-84
2021/05/16 00:26:40;;;;;;;4.53;2.80;;;10.30;99.90;;;;;;5025145;28;20767;-85
2021/05/16 00:29:06;;;;;;;3.70;2.87;;;10.40;99.90;;;;;;5026482;28;20738;-86
2021/05/16 00:31:32;;;;;;;4.17;3.10;;;10.50;99.90;;;;;;5032548;28;20222;-85
2021/05/16 00:33:58;;;;;;;4.77;3.23;;;10.40;99.90;;;;;;5042389;28;21149;-85
2021/05/16 00:36:24;;;;;;;3.83;2.70;;;10.40;99.90;;;;;;5008281;28;20224;-84
2021/05/16 00:38:50;;;;;;;4.87;3.70;;;10.40;99.90;;;;;;5023570;28;20225;-86
2021/05/16 00:41:16;;;;;;;6.00;3.63;;;10.40;99.90;;;;;;5003761;28;20742;-87
2021/05/16 00:43:42;;;;;;;6.00;3.47;;;10.40;99.90;;;;;;5035997;28;20238;-87
2021/05/16 00:46:09;;;;;;;4.97;2.97;;;10.40;99.90;;;;;;5040521;28;20225;-86
2021/05/16 00:48:39;;;;;;;4.50;2.70;;;10.40;99.90;;;;;;5041105;28;20214;-85
2021/05/16 00:51:05;;;;;;;5.20;3.00;;;10.50;99.90;;;;;;5047886;28;20221;-86
2021/05/16 00:53:32;;;;;;;4.03;3.07;;;10.50;99.90;;;;;;5024224;28;21249;-86
2021/05/16 00:55:58;;;;;;;3.57;3.03;;;10.50;99.90;;;;;;5009698;28;20190;-85
2021/05/16 00:58:25;;;;;;;4.90;3.43;;;10.40;99.90;;;;;;5042092;28;20220;-85
2021/05/16 01:00:51;;;;;;;4.23;2.80;;;10.40;99.90;;;;;;5041207;28;21126;-84
2021/05/16 01:03:20;;;;;;;5.33;3.47;;;10.30;99.90;;;;;;5041580;28;20245;-86
2021/05/16 01:05:46;;;;;;;4.83;3.43;;;10.30;99.90;;;;;;5041570;28;20236;-86
2021/05/16 01:08:12;;;;;;;3.97;2.47;;;10.20;99.90;;;;;;5042992;28;20198;-85
2021/05/16 01:10:39;;;;;;;5.10;3.40;;;10.20;99.90;;;;;;5040729;28;20216;-86
2021/05/16 01:13:06;;;;;;;6.70;3.60;;;10.10;99.90;;;;;;5024448;28;20271;-86
2021/05/16 01:15:33;;;;;;;5.00;2.87;;;10.10;99.90;;;;;;5011514;28;20209;-87
2021/05/16 01:18:00;;;;;;;4.53;3.43;;;10.10;99.90;;;;;;5028563;28;20227;-85
2021/05/16 01:20:30;;;;;;;5.50;4.43;;;10.10;99.90;;;;;;5027414;28;21209;-85
2021/05/16 01:23:03;;;;;;;3.67;2.73;;;10.10;99.90;;;;;;5029413;28;20269;-85
2021/05/16 01:25:32;;;;;;;4.70;3.60;;;10.10;99.90;;;;;;5027343;28;20260;-84
2021/05/16 01:27:58;;;;;;;3.83;2.30;;;10.10;99.90;;;;;;5045740;28;20244;-86
2021/05/16 01:30:24;;;;;;;3.30;2.67;;;10.00;99.90;;;;;;5027750;28;20229;-87
2021/05/16 01:32:51;;;;;;;2.90;2.40;;;10.10;99.90;;;;;;5027795;28;20702;-85
2021/05/16 01:35:18;;;;;;;6.43;3.53;;;10.00;99.90;;;;;;5030241;28;20185;-85
2021/05/16 01:37:46;;;;;;;3.53;3.20;;;10.00;99.90;;;;;;5044920;28;20221;-85
2021/05/16 01:40:13;;;;;;;3.70;2.57;;;10.00;99.90;;;;;;5044907;28;20260;-85
2021/05/16 01:42:47;;;;;;;5.30;3.40;;;9.90;99.90;;;;;;5044660;28;20226;-85
2021/05/16 01:45:15;;;;;;;4.43;3.53;;;10.00;99.90;;;;;;5028082;28;20286;-86
2021/05/16 01:47:41;;;;;;;3.20;2.90;;;10.00;99.90;;;;;;5024507;28;20199;-86
2021/05/16 01:50:16;;;;;;;2.23;2.03;;;10.00;99.90;;;;;;5041832;28;20190;-87
2021/05/16 01:52:43;;;;;;;2.93;2.63;;;10.00;99.90;;;;;;5039370;28;20218;-87
2021/05/16 01:55:10;;;;;;;4.63;4.10;;;10.00;99.90;;;;;;5022264;28;20249;-86
2021/05/16 01:57:37;;;;;;;4.87;3.40;;;10.00;99.90;;;;;;5039221;28;20218;-85
2021/05/16 02:00:09;;;;;;;3.73;2.57;;;9.90;99.90;;;;;;5032988;28;20228;-87
2021/05/16 02:02:37;;;;;;;3.83;3.17;;;9.90;99.90;;;;;;5021994;28;20214;-86
2021/05/16 02:05:03;;;;;;;5.03;3.67;;;9.90;99.90;;;;;;5024276;28;20893;-86
2021/05/16 02:07:30;;;;;;;6.73;3.87;;;9.90;99.90;;;;;;5021729;28;20240;-86
2021/05/16 02:09:57;;;;;;;6.07;3.23;;;10.00;99.90;;;;;;5038009;28;20214;-86
2021/05/16 02:12:23;;;;;;;4.17;3.27;;;10.00;99.90;;;;;;5038538;28;20234;-85
2021/05/16 02:14:49;;;;;;;4.57;3.10;;;10.00;99.90;;;;;;5039176;28;20241;-86
2021/05/16 02:17:15;;;;;;;4.83;4.13;;;10.00;99.90;;;;;;5041805;28;20260;-86
2021/05/16 02:19:42;;;;;;;4.93;3.17;;;10.00;99.90;;;;;;5038705;28;20244;-86
2021/05/16 02:22:08;;;;;;;4.60;3.73;;;10.00;99.90;;;;;;5039289;28;20452;-86
2021/05/16 02:24:34;;;;;;;5.17;2.87;;;10.00;99.90;;;;;;5022170;28;20244;-85
2021/05/16 02:27:00;;;;;;;3.53;3.07;;;10.10;99.90;;;;;;5042617;28;20221;-86
2021/05/16 02:29:30;;;;;;;6.73;4.20;;;10.10;99.90;;;;;;4991161;28;20255;-86
2021/05/16 02:32:00;;;;;;;4.23;3.30;;;10.10;99.90;;;;;;5038816;28;20640;-86
2021/05/16 02:34:25;;;;;;;5.73;3.70;;;10.10;99.90;;;;;;5021774;28;20635;-86
2021/05/16 02:36:51;;;;;;;5.27;4.07;;;10.10;99.90;;;;;;5045045;28;20217;-85
2021/05/16 02:39:17;;;;;;;5.13;3.43;;;10.00;99.90;;;;;;4988531;28;20217;-86
2021/05/16 02:41:43;;;;;;;4.17;3.47;;;10.00;99.90;;;;;;5004876;28;20307;-86
2021/05/16 02:44:09;;;;;;;5.53;3.80;;;10.00;99.90;;;;;;5022188;28;20319;-87
2021/05/16 02:46:37;;;;;;;4.40;3.80;;;10.00;99.90;;;;;;5039046;28;20754;-85
2021/05/16 02:49:03;;;;;;;5.23;3.40;;;10.00;99.90;;;;;;5007947;28;20240;-86
2021/05/16 02:51:28;;;;;;;6.20;3.30;;;10.10;99.90;;;;;;5023730;28;20300;-85
2021/05/16 02:53:54;;;;;;;5.23;3.37;;;10.10;99.90;;;;;;5024789;28;20243;-87
2021/05/16 02:56:20;;;;;;;10.37;4.70;;;10.10;99.90;;;;;;5043203;28;20601;-87
2021/05/16 02:58:46;;;;;;;7.13;4.67;;;10.10;99.90;;;;;;5024219;28;20232;-87
2021/05/16 03:01:12;;;;;;;6.27;5.00;;;10.10;99.90;;;;;;5007506;28;20209;-86
2021/05/16 03:03:39;;;;;;;4.17;3.43;;;10.10;99.90;;;;;;5041423;28;20233;-86
2021/05/16 03:06:06;;;;;;;7.43;5.40;;;10.10;99.90;;;;;;5025746;28;20236;-87
2021/05/16 03:08:31;;;;;;;6.43;4.23;;;10.10;99.90;;;;;;5039367;28;20190;-87
2021/05/16 03:10:57;;;;;;;6.80;5.07;;;10.20;99.90;;;;;;5038499;28;20186;-87
2021/05/16 03:13:23;;;;;;;8.30;5.10;;;10.20;99.90;;;;;;5023630;28;20232;-85
2021/05/16 03:15:49;;;;;;;9.90;5.60;;;10.20;99.90;;;;;;5008524;28;20222;-85
2021/05/16 03:18:15;;;;;;;7.10;4.83;;;10.20;99.90;;;;;;5043793;28;21219;-86
2021/05/16 03:20:40;;;;;;;6.93;5.43;;;10.20;99.90;;;;;;5009803;28;20193;-85
2021/05/16 03:23:06;;;;;;;8.20;5.87;;;10.20;99.90;;;;;;5010766;28;20206;-86
2021/05/16 03:25:34;;;;;;;13.60;6.53;;;10.20;99.90;;;;;;5026634;28;20217;-87
2021/05/16 03:28:01;;;;;;;8.67;5.70;;;10.30;99.90;;;;;;5009862;28;20230;-85
2021/05/16 03:30:26;;;;;;;7.47;4.60;;;10.30;99.90;;;;;;5025084;28;20218;-86
2021/05/16 03:32:52;;;;;;;7.93;6.00;;;10.30;99.90;;;;;;5025891;28;20780;-86
2021/05/16 03:35:18;;;;;;;5.83;4.17;;;10.30;99.90;;;;;;5027635;28;20190;-84
2021/05/16 03:37:44;;;;;;;8.93;6.53;;;10.20;99.90;;;;;;5007965;28;20288;-86
2021/05/16 03:40:10;;;;;;;13.00;6.73;;;10.20;99.90;;;;;;5024575;28;20269;-85
2021/05/16 03:42:37;;;;;;;8.83;7.53;;;10.10;99.90;;;;;;5025078;28;20225;-85
2021/05/16 03:45:05;;;;;;;8.70;5.00;;;10.10;99.90;;;;;;5040339;28;20221;-86
2021/05/16 03:47:31;;;;;;;9.57;5.80;;;10.00;99.90;;;;;;5043177;28;20189;-85
2021/05/16 03:49:57;;;;;;;9.30;5.87;;;10.00;99.90;;;;;;5027243;28;20182;-84
2021/05/16 03:52:23;;;;;;;6.80;5.23;;;10.10;99.90;;;;;;5025335;28;20745;-86
2021/05/16 03:54:50;;;;;;;10.07;7.17;;;10.20;99.90;;;;;;5042403;28;20220;-85
2021/05/16 03:57:17;;;;;;;10.93;6.10;;;10.20;99.90;;;;;;5006598;28;20296;-85
2021/05/16 03:59:43;;;;;;;9.37;5.60;;;10.30;99.90;;;;;;5037647;28;20236;-85
2021/05/16 04:02:10;;;;;;;11.07;6.03;;;10.30;99.90;;;;;;5006091;28;21003;-85
2021/05/16 04:04:36;;;;;;;7.70;5.60;;;10.30;99.90;;;;;;5022888;28;20233;-85
2021/05/16 04:07:02;;;;;;;9.97;6.43;;;10.40;99.90;;;;;;5040969;28;21054;-86
2021/05/16 04:09:28;;;;;;;12.67;7.10;;;10.40;99.90;;;;;;5041126;28;20206;-86
2021/05/16 04:11:54;;;;;;;12.43;7.20;;;10.40;99.90;;;;;;5008843;28;20737;-86
2021/05/16 04:14:22;;;;;;;10.20;6.13;;;10.40;99.90;;;;;;5010507;28;21182;-86
2021/05/16 04:16:48;;;;;;;8.07;4.97;;;10.40;99.90;;;;;;5009090;28;20567;-84
2021/05/16 04:19:14;;;;;;;9.23;6.43;;;10.40;99.90;;;;;;5024721;28;20232;-85
2021/05/16 04:21:39;;;;;;;8.03;5.23;;;10.50;99.90;;;;;;5024184;28;20229;-86
2021/05/16 04:24:06;;;;;;;9.77;6.83;;;10.50;99.90;;;;;;5023919;28;20249;-85
2021/05/16 04:26:31;;;;;;;11.63;7.47;;;10.50;99.90;;;;;;5015083;28;20201;-86
2021/05/16 04:28:57;;;;;;;10.93;7.37;;;10.50;99.90;;;;;;5025854;28;20186;-86
2021/05/16 04:31:23;;;;;;;8.13;5.83;;;10.50;99.90;;;;;;5008086;28;20222;-86
2021/05/16 04:33:49;;;;;;;11.83;8.13;;;10.50;99.90;;;;;;5023343;28;20221;-85
2021/05/16 04:36:14;;;;;;;11.90;5.90;;;10.50;99.90;;;;;;5025130;28;20237;-85
2021/05/16 04:38:40;;;;;;;13.27;7.80;;;10.60;99.90;;;;;;5023928;28;20197;-85
2021/05/16 04:41:06;;;;;;;9.27;6.07;;;10.50;99.90;;;;;;5025930;28;20241;-86
2021/05/16 04:43:31;;;;;;;11.83;6.00;;;10.60;99.90;;;;;;5024842;28;20283;-86
2021/05/16 04:45:57;;;;;;;8.47;6.57;;;10.60;99.90;;;;;;5039382;28;20217;-86
2021/05/16 04:48:23;;;;;;;12.77;8.90;;;10.60;99.90;;;;;;5040507;28;20221;-87
2021/05/16 04:50:48;;;;;;;12.20;7.30;;;10.60;99.90;;;;;;5007194;28;20603;-86
2021/05/16 04:53:15;;;;;;;10.07;7.80;;;10.60;99.90;;;;;;5009307;28;20205;-86
2021/05/16 04:55:40;;;;;;;11.33;6.80;;;10.60;99.90;;;;;;5024260;28;20761;-86
2021/05/16 04:58:08;;;;;;;13.53;8.07;;;10.60;99.90;;;;;;5024813;28;20225;-86
2021/05/16 05:00:34;;;;;;;15.63;8.13;;;10.60;99.90;;;;;;5024326;28;20213;-86
2021/05/16 05:02:59;;;;;;;13.20;8.47;;;10.60;99.90;;;;;;5023531;28;20707;-87
2021/05/16 05:05:25;;;;;;;14.23;9.13;;;10.60;99.90;;;;;;5032834;28;20965;-84
2021/05/16 05:07:51;;;;;;;10.47;6.87;;;10.70;99.90;;;;;;5008518;28;21216;-85
2021/05/16 05:10:17;;;;;;;10.07;6.60;;;10.70;99.90;;;;;;5007728;28;20742;-85
2021/05/16 05:12:43;;;;;;;13.57;9.33;;;10.70;99.90;;;;;;5023613;28;20222;-86
2021/05/16 05:15:09;;;;;;;15.73;9.00;;;10.70;99.90;;;;;;5023933;28;20218;-85
2021/05/16 05:17:41;;;;;;;14.30;9.40;;;10.80;99.90;;;;;;5023636;28;20190;-85
2021/05/16 05:20:09;;;;;;;14.60;7.77;;;10.80;99.90;;;;;;5025716;28;20198;-84
2021/05/16 05:22:35;;;;;;;14.77;8.40;;;10.80;99.90;;;;;;5007076;28;20678;-87
2021/05/16 05:25:00;;;;;;;16.33;8.20;;;10.70;99.90;;;;;;5040749;28;20222;-86
2021/05/16 05:27:26;;;;;;;19.43;10.77;;;10.70;99.90;;;;;;4991037;28;21104;-87
2021/05/16 05:29:52;;;;;;;8.53;6.17;;;10.70;99.90;;;;;;5024139;28;20271;-86
2021/05/16 05:32:17;;;;;;;13.27;7.93;;;10.70;99.90;;;;;;5025724;28;20702;-86
2021/05/16 05:34:43;;;;;;;10.47;7.43;;;10.60;99.90;;;;;;4991308;28;20300;-85
2021/05/16 05:37:09;;;;;;;17.03;8.47;;;10.60;99.90;;;;;;5020108;28;20221;-87
2021/05/16 05:39:35;;;;;;;10.47;8.50;;;10.50;99.90;;;;;;5016931;28;20245;-85
2021/05/16 05:42:00;;;;;;;14.50;7.50;;;10.60;99.90;;;;;;5020153;28;20694;-85
2021/05/16 05:44:26;;;;;;;11.00;7.53;;;10.70;99.90;;;;;;5040114;28;20348;-84
2021/05/16 05:46:52;;;;;;;15.17;9.00;;;10.70;99.90;;;;;;5008896;28;20186;-84
2021/05/16 05:49:18;;;;;;;13.30;7.17;;;10.70;99.90;;;;;;5006807;28;20222;-87
2021/05/16 05:51:43;;;;;;;9.77;6.93;;;10.80;99.90;;;;;;5017470;28;21127;-83
2021/05/16 05:54:10;;;;;;;12.60;6.83;;;10.70;99.90;;;;;;5007336;28;20232;-84
2021/05/16 05:56:35;;;;;;;12.97;7.73;;;10.80;99.90;;;;;;5040630;28;20215;-85
2021/05/16 05:59:02;;;;;;;12.20;6.50;;;10.70;99.90;;;;;;5024708;28;20610;-84
2021/05/16 06:01:28;;;;;;;7.33;4.87;;;10.70;99.90;;;;;;5015340;28;20627;-84
2021/05/16 06:03:54;;;;;;;12.50;6.47;;;10.80;99.90;;;;;;4994083;28;20222;-83
2021/05/16 06:06:20;;;;;;;8.90;4.60;;;10.70;99.90;;;;;;5028291;28;20233;-83
2021/05/16 06:08:45;;;;;;;7.23;4.53;;;10.70;99.90;;;;;;5027498;28;20233;-84
2021/05/16 06:11:11;;;;;;;7.57;4.53;;;10.80;99.90;;;;;;5045269;28;20313;-83
2021/05/16 06:13:37;;;;;;;6.87;4.57;;;10.80;99.90;;;;;;5010521;28;21077;-82
2021/05/16 06:16:03;;;;;;;9.13;5.37;;;10.80;99.90;;;;;;5044478;28;20748;-84
2021/05/16 06:18:29;;;;;;;7.47;4.83;;;10.80;99.90;;;;;;5010304;28;20579;-84
2021/05/16 06:20:55;;;;;;;6.93;4.43;;;10.80;99.90;;;;;;5009834;28;20332;-83
2021/05/16 06:23:20;;;;;;;12.70;5.63;;;10.90;99.90;;;;;;5028390;28;20655;-85
2021/05/16 06:25:49;;;;;;;8.53;4.83;;;10.80;99.90;;;;;;5010575;28;20229;-83
2021/05/16 06:28:15;;;;;;;5.23;3.83;;;10.70;99.90;;;;;;5009178;28;20275;-86
2021/05/16 06:30:42;;;;;;;6.30;3.27;;;10.70;99.90;;;;;;5044331;28;20218;-86
2021/05/16 06:33:07;;;;;;;4.43;3.30;;;10.70;99.90;;;;;;5043028;28;20249;-81
2021/05/16 06:35:33;;;;;;;4.37;3.03;;;10.80;99.90;;;;;;5026172;28;21067;-84
2021/05/16 06:37:59;;;;;;;6.17;4.27;;;10.70;99.90;;;;;;5027968;28;20692;-82
2021/05/16 06:40:25;;;;;;;5.53;3.23;;;10.60;99.90;;;;;;5043666;28;20269;-84
2021/05/16 06:42:53;;;;;;;4.07;3.27;;;10.50;99.90;;;;;;5042632;28;20317;-82
2021/05/16 06:45:18;;;;;;;7.30;4.40;;;10.40;99.90;;;;;;5039953;28;20229;-81
2021/05/16 06:47:44;;;;;;;9.10;4.50;;;10.40;99.90;;;;;;5022014;28;20920;-81
2021/05/16 06:50:10;;;;;;;7.43;4.70;;;10.50;99.90;;;;;;4993097;28;20182;-82
2021/05/16 06:52:36;;;;;;;7.87;5.10;;;10.60;99.90;;;;;;5039774;28;20662;-83
2021/05/16 06:55:03;;;;;;;8.43;3.97;;;10.70;99.90;;;;;;5024839;28;20299;-83
2021/05/16 06:57:29;;;;;;;5.10;4.30;;;10.60;99.90;;;;;;5043560;28;20244;-81
2021/05/16 06:59:55;;;;;;;8.00;5.80;;;10.60;99.90;;;;;;5026213;28;20705;-81
2021/05/16 07:02:20;;;;;;;10.17;6.50;;;10.70;99.90;;;;;;5010387;28;20604;-81
2021/05/16 07:04:48;;;;;;;10.07;4.63;;;10.80;99.90;;;;;;5007920;28;20667;-84
2021/05/16 07:07:14;;;;;;;7.20;5.00;;;10.80;99.90;;;;;;5011062;28;20222;-87
2021/05/16 07:09:42;;;;;;;8.47;5.60;;;11.00;99.90;;;;;;5008430;28;20644;-86
2021/05/16 07:12:09;;;;;;;10.03;5.30;;;11.10;99.90;;;;;;5009924;28;20694;-86
2021/05/16 07:14:35;;;;;;;9.33;4.43;;;11.20;99.90;;;;;;5009977;28;20285;-86
2021/05/16 07:17:01;;;;;;;6.67;3.73;;;11.30;99.90;;;;;;5045128;28;20182;-88
2021/05/16 07:19:26;;;;;;;9.03;3.33;;;11.20;99.90;;;;;;5009944;28;21309;-87
2021/05/16 07:21:52;;;;;;;8.83;3.90;;;11.30;99.90;;;;;;5025968;28;20224;-84
2021/05/16 07:24:18;;;;;;;7.70;4.23;;;11.30;99.90;;;;;;5009367;28;20218;-84
2021/05/16 07:26:44;;;;;;;7.77;3.57;;;11.30;99.90;;;;;;5025885;28;20607;-85
2021/05/16 07:29:09;;;;;;;5.77;4.90;;;11.50;99.90;;;;;;5044300;28;20273;-85
2021/05/16 07:31:35;;;;;;;5.23;3.57;;;11.70;99.90;;;;;;5015805;28;20225;-85
2021/05/16 07:34:01;;;;;;;4.63;3.37;;;11.80;99.90;;;;;;4992886;28;20332;-84
2021/05/16 07:36:27;;;;;;;10.13;3.83;;;11.90;99.90;;;;;;5025593;28;20705;-84
2021/05/16 07:38:53;;;;;;;4.53;2.80;;;11.90;99.90;;;;;;5008963;28;21035;-86
2021/05/16 07:41:19;;;;;;;4.83;3.47;;;11.90;99.90;;;;;;5026286;28;20240;-85
2021/05/16 07:43:44;;;;;;;6.70;2.97;;;12.00;99.90;;;;;;5008627;28;20225;-85
2021/05/16 07:46:11;;;;;;;5.43;2.83;;;12.00;99.90;;;;;;5040623;28;20274;-83
2021/05/16 07:48:36;;;;;;;7.10;3.40;;;12.00;99.90;;;;;;5005142;28;20241;-84
2021/05/16 07:51:03;;;;;;;4.97;2.57;;;11.90;99.90;;;;;;5022339;28;20222;-84
2021/05/16 07:53:31;;;;;;;4.70;2.63;;;11.90;99.90;;;;;;5024887;28;20190;-84
2021/05/16 07:55:57;;;;;;;4.40;2.90;;;11.90;99.90;;;;;;5043236;28;20279;-85
2021/05/16 07:58:22;;;;;;;4.17;3.20;;;11.90;99.90;;;;;;5041002;28;20309;-85
2021/05/16 08:00:48;;;;;;;4.67;2.87;;;11.90;99.90;;;;;;5023329;28;20304;-85
2021/05/16 08:03:14;;;;;;;3.13;1.90;;;12.00;99.90;;;;;;4990640;28;20249;-86
2021/05/16 08:05:40;;;;;;;3.37;2.27;;;12.00;99.90;;;;;;5035029;28;20194;-83
2021/05/16 08:08:06;;;;;;;3.50;2.47;;;11.90;99.90;;;;;;5022980;28;20201;-84
2021/05/16 08:10:32;;;;;;;4.87;3.27;;;12.00;99.90;;;;;;5023639;28;20222;-83
2021/05/16 08:12:57;;;;;;;2.40;1.93;;;12.00;99.90;;;;;;5006227;28;20213;-83
2021/05/16 08:15:25;;;;;;;1.60;1.50;;;12.00;99.90;;;;;;5040507;28;20217;-84
2021/05/16 08:17:52;;;;;;;2.03;1.77;;;12.00;99.90;;;;;;5020867;28;20666;-85
2021/05/16 08:20:19;;;;;;;2.00;1.73;;;12.10;99.90;;;;;;5002873;28;20209;-85
2021/05/16 08:22:45;;;;;;;2.67;1.80;;;12.10;99.90;;;;;;5014873;28;20214;-87
2021/05/16 08:25:13;;;;;;;1.97;1.30;;;12.10;99.90;;;;;;5000400;28;20687;-84
2021/05/16 08:27:40;;;;;;;4.10;2.20;;;12.00;99.90;;;;;;5018518;28;20217;-84
2021/05/16 08:30:06;;;;;;;2.57;1.50;;;12.20;99.90;;;;;;5016712;28;20332;-84
2021/05/16 08:32:32;;;;;;;2.50;2.03;;;12.40;99.90;;;;;;5025322;28;20198;-86
2021/05/16 08:34:58;;;;;;;1.37;1.27;;;12.50;99.90;;;;;;4992769;28;20247;-84
2021/05/16 08:37:24;;;;;;;3.50;1.00;;;12.60;99.90;;;;;;5038151;28;20309;-84
2021/05/16 08:39:50;;;;;;;2.93;1.70;;;13.40;99.90;;;;;;5020928;28;20237;-83
2021/05/16 08:42:17;;;;;;;0.73;0.70;;;14.30;99.90;;;;;;5021814;28;20377;-84
2021/05/16 08:44:43;;;;;;;1.77;0.90;;;15.20;99.90;;;;;;5005799;28;20210;-84
2021/05/16 08:47:09;;;;;;;1.27;1.10;;;16.30;99.90;;;;;;5024027;28;20255;-87
2021/05/16 08:49:35;;;;;;;3.53;1.40;;;17.00;99.90;;;;;;5023631;28;20245;-85
2021/05/16 08:52:01;;;;;;;1.63;1.10;;;17.50;99.90;;;;;;5023548;28;20572;-87
2021/05/16 08:54:27;;;;;;;1.00;0.70;;;16.70;99.90;;;;;;5040530;28;20229;-87
2021/05/16 08:56:55;;;;;;;0.73;0.60;;;15.50;99.90;;;;;;5041460;28;20229;-87
2021/05/16 08:59:23;;;;;;;0.43;0.40;;;14.80;99.90;;;;;;5025121;28;20248;-86
2021/05/16 09:01:54;;;;;;;3.30;0.60;;;13.80;99.90;;;;;;5004529;28;20643;-87
2021/05/16 09:06:57;;;;;;;1.67;1.20;;;12.90;99.90;;;;;;5021305;28;21044;-86
2021/05/16 09:09:36;;;;;;;1.07;0.70;;;12.70;99.90;;;;;;4986973;28;20222;-87
2021/05/16 09:12:04;;;;;;;0.63;0.60;;;12.60;99.90;;;;;;5018053;28;20247;-87
2021/05/16 09:14:46;;;;;;;0.63;0.63;;;12.50;99.90;;;;;;5018688;28;20220;-87
2021/05/16 09:17:31;;;;;;;0.70;0.70;;;12.50;99.90;;;;;;5038137;28;20197;-87
2021/05/16 09:20:11;;;;;;;1.10;1.00;;;12.40;99.90;;;;;;5036577;28;20226;-87
2021/05/16 09:22:44;;;;;;;3.17;1.20;;;12.30;99.90;;;;;;5035852;28;20226;-87
2021/05/16 09:25:23;;;;;;;1.63;0.93;;;12.30;99.90;;;;;;5018917;28;20251;-87
2021/05/16 09:27:54;;;;;;;1.67;1.57;;;12.30;99.90;;;;;;5034978;28;20244;-86
2021/05/16 09:30:20;;;;;;;3.93;2.00;;;12.20;99.90;;;;;;5018719;28;20213;-88
2021/05/16 09:32:49;;;;;;;2.97;1.70;;;12.20;99.90;;;;;;5035720;28;20355;-87
2021/05/16 09:35:15;;;;;;;2.77;2.47;;;12.20;99.90;;;;;;5037885;28;20202;-83
2021/05/16 09:38:04;;;;;;;6.20;2.40;;;12.30;99.90;;;;;;5020009;28;20218;-84
2021/05/16 09:40:40;;;;;;;4.97;2.77;;;12.50;99.90;;;;;;5044480;28;20276;-86
2021/05/16 09:43:14;;;;;;;3.70;2.93;;;12.60;99.90;;;;;;5024423;28;20329;-85
2021/05/16 09:46:02;;;;;;;4.43;3.33;;;12.70;99.90;;;;;;5041374;28;20221;-88
2021/05/16 09:48:36;;;;;;;5.83;3.17;;;12.50;99.90;;;;;;5025535;28;20234;-83
2021/05/16 09:51:24;;;;;;;4.40;3.03;;;12.30;99.90;;;;;;5044997;28;20225;-83
2021/05/16 09:53:53;;;;;;;6.27;3.77;;;12.20;99.90;;;;;;5025598;28;20217;-83
2021/05/16 09:56:34;;;;;;;7.27;3.47;;;12.10;99.90;;;;;;5027949;28;20244;-84
2021/05/16 09:59:05;;;;;;;7.07;4.70;;;12.10;99.90;;;;;;5043096;28;20225;-84
2021/05/16 10:01:31;;;;;;;8.27;6.50;;;12.40;99.90;;;;;;5027215;28;20225;-84
2021/05/16 10:03:59;;;;;;;5.83;3.57;;;12.50;99.90;;;;;;5026036;28;20225;-84
2021/05/16 10:06:26;;;;;;;6.03;3.47;;;12.80;99.90;;;;;;5025936;28;20345;-84
2021/05/16 10:08:52;;;;;;;3.90;3.43;;;13.60;99.90;;;;;;5042944;28;20217;-85
2021/05/16 10:11:20;;;;;;;6.70;4.00;;;14.50;99.90;;;;;;5026086;28;20729;-83
2021/05/16 10:14:06;;;;;;;6.13;3.90;;;15.40;99.90;;;;;;5042351;28;20217;-87
2021/05/16 10:16:47;;;;;;;4.27;2.80;;;16.30;99.90;;;;;;5024789;28;20293;-87
2021/05/16 10:19:20;;;;;;;8.23;3.67;;;15.90;99.90;;;;;;5026714;28;20683;-87
2021/05/16 10:22:01;;;;;;;9.00;4.33;;;15.70;99.90;;;;;;5023259;28;20256;-85
2021/05/16 10:24:56;;;;;;;4.27;3.20;;;15.10;99.90;;;;;;5028090;28;20225;-87
2021/05/16 10:27:29;;;;;;;5.60;3.67;;;15.00;99.90;;;;;;5042019;28;20225;-85
2021/05/16 10:30:06;;;;;;;4.43;2.53;;;15.60;99.90;;;;;;5025165;28;20329;-86
2021/05/16 10:32:40;;;;;;;5.10;3.20;;;16.10;99.90;;;;;;5037288;28;20186;-86
2021/05/16 10:35:11;;;;;;;6.30;3.07;;;16.10;99.90;;;;;;5040855;28;20213;-86
2021/05/16 10:37:36;;;;;;;2.93;2.33;;;15.70;99.90;;;;;;5029986;28;20225;-86
2021/05/16 10:40:04;;;;;;;5.37;3.33;;;15.40;99.90;;;;;;5042624;28;20233;-84
2021/05/16 10:42:50;;;;;;;6.80;3.37;;;15.00;99.90;;;;;;5043820;28;20229;-85
2021/05/16 10:45:20;;;;;;;6.73;3.23;;;14.70;99.90;;;;;;5041560;28;20241;-87
2021/05/16 10:47:49;;;;;;;3.90;3.30;;;14.20;99.90;;;;;;5024231;28;20225;-86
2021/05/16 10:50:24;;;;;;;6.67;2.60;;;13.50;99.90;;;;;;5026172;28;20191;-88
2021/05/16 10:53:04;;;;;;;3.70;2.63;;;13.20;99.90;;;;;;5042521;28;20210;-88
2021/05/16 10:55:43;;;;;;;6.00;3.40;;;13.20;99.90;;;;;;5024867;28;20627;-85
2021/05/16 10:58:34;;;;;;;4.10;2.60;;;13.60;99.90;;;;;;5042263;28;20262;-86
2021/05/16 11:01:07;;;;;;;6.23;3.10;;;13.70;99.90;;;;;;5039913;28;20271;-86
2021/05/16 11:03:57;;;;;;;4.47;3.50;;;14.10;99.90;;;;;;5025358;28;20217;-87
2021/05/16 11:06:43;;;;;;;4.47;2.37;;;14.00;99.90;;;;;;5022452;28;20214;-88
2021/05/16 11:09:11;;;;;;;3.90;2.70;;;14.20;99.90;;;;;;5021001;28;20225;-87
2021/05/16 11:11:40;;;;;;;4.23;2.87;;;13.90;99.90;;;;;;5041060;28;20186;-89
2021/05/16 11:14:18;;;;;;;2.27;1.33;;;13.80;99.90;;;;;;5026490;28;20202;-88
2021/05/16 11:17:05;;;;;;;4.57;2.60;;;13.70;99.90;;;;;;5042578;28;20259;-88
2021/05/16 11:19:33;;;;;;;4.40;2.77;;;13.70;99.90;;;;;;5024728;28;20233;-87
2021/05/16 11:22:10;;;;;;;3.47;2.10;;;14.00;99.90;;;;;;5024339;28;20237;-86
2021/05/16 11:24:36;;;;;;;3.67;2.10;;;14.30;99.90;;;;;;5023264;28;20229;-86
2021/05/16 11:27:32;;;;;;;3.53;2.23;;;14.70;99.90;;;;;;5039957;28;20602;-88
2021/05/16 11:30:04;;;;;;;4.63;2.33;;;14.80;99.90;;;;;;5021034;28;20226;-88
2021/05/16 11:32:32;;;;;;;2.53;1.57;;;15.00;99.90;;;;;;5041058;28;20240;-87
2021/05/16 11:35:02;;;;;;;2.33;1.57;;;15.00;99.90;;;;;;5026194;28;20225;-87
2021/05/16 11:37:30;;;;;;;2.23;1.73;;;14.70;99.90;;;;;;5040712;28;20229;-88
2021/05/16 11:40:12;;;;;;;1.93;1.47;;;14.50;99.90;;;;;;5040749;28;20606;-86
2021/05/16 11:42:40;;;;;;;1.73;1.20;;;14.90;99.90;;;;;;5039395;28;21135;-87
2021/05/16 11:45:07;;;;;;;1.03;0.70;;;14.80;99.90;;;;;;5007467;28;20221;-87
2021/05/16 11:47:37;;;;;;;1.47;1.13;;;14.10;99.90;;;;;;5023055;28;20471;-87
2021/05/16 11:50:05;;;;;;;1.80;1.03;;;14.00;99.90;;;;;;5043037;28;20221;-87
2021/05/16 11:52:31;;;;;;;1.40;0.70;;;14.00;99.90;;;;;;5022033;28;20356;-86
2021/05/16 11:55:04;;;;;;;0.63;0.60;;;14.00;99.90;;;;;;5004524;28;20690;-88
2021/05/16 11:57:30;;;;;;;1.33;1.10;;;13.80;99.90;;;;;;5021272;28;20222;-87
2021/05/16 11:59:56;;;;;;;1.13;0.90;;;14.00;99.90;;;;;;4988256;28;20221;-88
2021/05/16 12:02:22;;;;;;;1.70;1.00;;;14.00;99.90;;;;;;5023727;28;20194;-87
2021/05/16 12:04:48;;;;;;;0.60;0.60;;;14.10;99.90;;;;;;5029371;28;20219;-88
2021/05/16 12:07:25;;;;;;;1.47;1.10;;;14.20;99.90;;;;;;5006092;28;20618;-87
2021/05/16 12:09:50;;;;;;;0.80;0.80;;;14.50;99.90;;;;;;5020949;28;20946;-87
2021/05/16 12:12:18;;;;;;;2.40;0.90;;;14.70;99.90;;;;;;5006899;28;20214;-88
2021/05/16 12:14:45;;;;;;;1.10;0.90;;;14.90;99.90;;;;;;5022631;28;20778;-87
2021/05/16 12:17:13;;;;;;;1.13;0.97;;;14.80;99.90;;;;;;5042171;28;20256;-87
2021/05/16 12:19:40;;;;;;;0.80;0.60;;;14.70;99.90;;;;;;4990684;28;20237;-88
2021/05/16 12:22:11;;;;;;;0.30;0.30;;;14.50;99.90;;;;;;5023307;28;20233;-87
2021/05/16 12:24:48;;;;;;;0.77;0.57;;;14.50;99.90;;;;;;5023448;28;20241;-86
2021/05/16 12:27:19;;;;;;;0.60;0.40;;;14.70;99.90;;;;;;5040751;28;20808;-87
2021/05/16 12:29:47;;;;;;;0.67;0.67;;;14.90;99.90;;;;;;5022193;28;26674;-87
2021/05/16 12:32:24;;;;;;;0.20;0.20;;;15.10;99.90;;;;;;5024388;28;20259;-88
2021/05/16 12:34:51;;;;;;;0.50;0.50;;;15.50;99.90;;;;;;5040330;28;20221;-86
2021/05/16 12:37:27;;;;;;;0.27;0.27;;;15.60;99.90;;;;;;5038675;28;20240;-86
2021/05/16 12:39:58;;;;;;;0.60;0.60;;;15.50;99.90;;;;;;5022245;28;20269;-86
2021/05/16 12:42:37;;;;;;;1.13;0.50;;;15.80;99.90;;;;;;5023562;28;20257;-87
2021/05/16 12:45:20;;;;;;;0.50;0.40;;;15.90;99.90;;;;;;5022766;28;20237;-88
2021/05/16 12:48:07;;;;;;;2.00;0.50;;;15.80;99.90;;;;;;5039168;28;20221;-87
2021/05/16 12:50:38;;;;;;;0.63;0.50;;;16.00;99.90;;;;;;5042146;28;20182;-87
2021/05/16 12:53:39;;;;;;;2.30;0.70;;;16.40;99.90;;;;;;5033003;28;20197;-87
2021/05/16 12:56:21;;;;;;;0.63;0.40;;;16.20;99.90;;;;;;5005324;28;20852;-86